Terminal Aerodrome Forecast
Issued by NWS

Home | Current Version | Previous Version | Text Only | Print | Product List | Glossary On
Versions: 1 2 3 4 5 6 7 8 9 10 11 12 13 14 15
000
FTUS44 KBMX 032328
TAFANB
TAF
KANB 032328Z 0400/0424 08005KT P6SM SCT040 SCT150
     FM040900 00000KT 4SM BR SCT015
     FM041430 VRB05KT P6SM SCT050 SCT250=

USA.gov is the U.S. government's official web portal to all federal, state and local government web resources and services.